Time;durP1;ratioP1;P1;durP2;ratioP2;P2;SDS_P1;SDS_P2;PMS_P1;PMS_P2;Temp;Humidity;BMP_temperature;BMP_pressure;BME280_temperature;BME280_humidity;BME280_pressure;Samples;Min_cycle;Max_cycle;Signal;HPM_P1;HPM_P2
2022/04/28 00:02:37;;;;;;;7.53;3.73;;;;;10.00;102241.00;;;;4929444;28;20484;-69
2022/04/28 00:05:24;;;;;;;13.77;3.90;;;;;9.90;102247.00;;;;4930300;28;20245;-66
2022/04/28 00:08:11;;;;;;;8.00;3.60;;;;;9.80;102237.00;;;;4924705;28;20237;-69
2022/04/28 00:10:58;;;;;;;8.50;4.07;;;;;9.90;102249.00;;;;4922282;28;20907;-68
2022/04/28 00:13:44;;;;;;;8.97;3.47;;;;;9.90;102248.00;;;;4929794;28;20645;-68
2022/04/28 00:16:32;;;;;;;7.77;4.53;;;;;9.90;102248.00;;;;4929732;28;20233;-67
2022/04/28 00:19:18;;;;;;;9.13;4.93;;;;;9.80;102246.00;;;;4930362;28;20302;-68
2022/04/28 00:22:05;;;;;;;5.53;3.73;;;;;9.80;102232.00;;;;4924937;28;20233;-69
2022/04/28 00:24:52;;;;;;;6.87;3.43;;;;;9.70;102235.00;;;;4929818;28;20239;-69
2022/04/28 00:27:38;;;;;;;6.87;3.93;;;;;9.70;102240.00;;;;4927623;28;20230;-69
2022/04/28 00:30:25;;;;;;;10.27;3.90;;;;;9.70;102233.00;;;;4929967;28;20234;-69
2022/04/28 00:33:12;;;;;;;8.07;4.47;;;;;9.70;102229.00;;;;4924113;28;20244;-67
2022/04/28 00:35:59;;;;;;;6.73;3.83;;;;;9.60;102238.00;;;;4922244;28;20259;-69
2022/04/28 00:38:45;;;;;;;9.73;4.40;;;;;9.50;102242.00;;;;4929663;28;20406;-68
2022/04/28 00:41:31;;;;;;;8.20;3.93;;;;;9.40;102241.00;;;;4929324;28;20232;-69
2022/04/28 00:44:17;;;;;;;7.93;4.27;;;;;9.30;102235.00;;;;4926939;28;20242;-69
2022/04/28 00:47:04;;;;;;;7.20;3.60;;;;;9.30;102248.00;;;;4922427;28;20676;-67
2022/04/28 00:52:55;;;;;;;7.17;4.70;;;;;9.20;102244.00;;;;4934640;28;20237;-68
2022/04/28 00:55:42;;;;;;;6.53;4.40;;;;;9.10;102244.00;;;;4945925;28;20376;-71
2022/04/28 00:58:28;;;;;;;6.10;4.10;;;;;8.90;102251.00;;;;4949213;28;20249;-68
2022/04/28 01:01:15;;;;;;;7.07;4.23;;;;;8.80;102252.00;;;;4928772;28;20610;-68
2022/04/28 01:04:02;;;;;;;6.90;3.70;;;;;8.80;102247.00;;;;4921986;28;20248;-68
2022/04/28 01:06:51;;;;;;;8.17;4.23;;;;;8.70;102244.00;;;;4948374;28;20321;-70
2022/04/28 01:09:37;;;;;;;7.90;4.00;;;;;8.70;102246.00;;;;4929039;28;20250;-69
2022/04/28 01:12:24;;;;;;;7.53;3.97;;;;;8.80;102236.00;;;;4939307;28;20760;-67
2022/04/28 01:15:11;;;;;;;8.83;4.20;;;;;8.70;102247.00;;;;4922773;28;20293;-66
2022/04/28 01:17:57;;;;;;;8.77;4.47;;;;;8.70;102244.00;;;;4925810;28;20236;-70
2022/04/28 01:20:44;;;;;;;7.50;4.13;;;;;8.60;102242.00;;;;4943465;28;20227;-70
2022/04/28 01:23:32;;;;;;;9.63;4.10;;;;;8.50;102249.00;;;;4947945;28;20938;-70
2022/04/28 01:26:18;;;;;;;7.03;3.77;;;;;8.50;102245.00;;;;4926998;28;20252;-70
2022/04/28 01:29:05;;;;;;;9.83;3.93;;;;;8.50;102254.00;;;;4927306;28;20896;-70
2022/04/28 01:31:51;;;;;;;5.60;3.87;;;;;8.40;102262.00;;;;4933735;28;20241;-68
2022/04/28 01:34:37;;;;;;;8.87;4.73;;;;;8.30;102250.00;;;;4928276;28;22639;-68
2022/04/28 01:37:25;;;;;;;9.10;4.03;;;;;8.50;102249.00;;;;4928562;28;20306;-69
2022/04/28 01:40:13;;;;;;;9.13;4.30;;;;;8.40;102258.00;;;;4922124;28;20367;-68
2022/04/28 01:42:59;;;;;;;9.63;4.20;;;;;8.50;102236.00;;;;4927528;28;20389;-69
2022/04/28 01:45:45;;;;;;;9.07;4.30;;;;;8.50;102256.00;;;;4947798;28;20239;-68
2022/04/28 01:48:32;;;;;;;8.80;5.03;;;;;8.40;102260.00;;;;4947569;28;20239;-69
2022/04/28 01:57:30;;;;;;;10.30;4.20;;;;;8.30;102238.00;;;;4947466;28;20247;-70
2022/04/28 02:00:17;;;;;;;8.57;4.70;;;;;8.30;102226.00;;;;4926419;28;20238;-70
2022/04/28 02:03:03;;;;;;;13.60;4.27;;;;;8.30;102246.00;;;;4946764;28;20322;-71
2022/04/28 02:05:49;;;;;;;8.00;3.67;;;;;8.20;102245.00;;;;4947226;28;20228;-70
2022/04/28 02:08:36;;;;;;;9.80;4.47;;;;;8.10;102249.00;;;;4946902;28;20239;-68
2022/04/28 02:11:22;;;;;;;7.43;4.00;;;;;8.20;102249.00;;;;4922623;28;20237;-67
2022/04/28 02:14:09;;;;;;;7.37;4.10;;;;;8.10;102236.00;;;;4921033;28;20340;-68
2022/04/28 02:16:56;;;;;;;12.43;4.57;;;;;8.10;102249.00;;;;4927305;28;20316;-69
2022/04/28 02:19:42;;;;;;;11.27;4.23;;;;;8.10;102245.00;;;;4947408;28;20256;-69
2022/04/28 02:22:28;;;;;;;9.90;4.37;;;;;8.00;102241.00;;;;4947106;28;20247;-68
2022/04/28 02:25:15;;;;;;;7.93;3.67;;;;;8.00;102236.00;;;;4922068;28;20623;-69
2022/04/28 02:28:01;;;;;;;8.13;5.00;;;;;7.90;102242.00;;;;4933952;28;20702;-70
2022/04/28 02:30:48;;;;;;;14.00;4.47;;;;;7.80;102249.00;;;;4928997;28;20364;-69
2022/04/28 02:33:35;;;;;;;7.23;4.23;;;;;7.80;102260.00;;;;4946863;28;20768;-70
2022/04/28 02:36:21;;;;;;;7.27;4.60;;;;;7.70;102257.00;;;;4946535;28;20379;-69
2022/04/28 02:39:09;;;;;;;9.27;4.13;;;;;7.80;102246.00;;;;4921560;28;20248;-69
2022/04/28 02:41:56;;;;;;;9.30;4.20;;;;;7.70;102251.00;;;;4927210;28;20331;-68
2022/04/28 02:44:42;;;;;;;8.17;4.57;;;;;7.70;102254.00;;;;4927294;28;20752;-70
2022/04/28 02:47:30;;;;;;;8.60;4.53;;;;;7.60;102252.00;;;;4927341;28;20307;-69
2022/04/28 02:50:16;;;;;;;6.63;4.03;;;;;7.50;102247.00;;;;4932926;28;20724;-68
2022/04/28 02:53:02;;;;;;;8.37;4.20;;;;;7.40;102246.00;;;;4946415;28;20310;-68
2022/04/28 02:55:48;;;;;;;8.67;4.03;;;;;7.30;102255.00;;;;4927654;28;20257;-67
2022/04/28 02:58:35;;;;;;;8.90;4.97;;;;;7.30;102254.00;;;;4927681;28;20236;-68
2022/04/28 03:01:21;;;;;;;10.03;4.37;;;;;7.30;102223.00;;;;4921261;28;20244;-69
2022/04/28 03:04:09;;;;;;;7.70;4.37;;;;;7.20;102253.00;;;;4920484;28;20620;-68
2022/04/28 03:13:03;;;;;;;9.70;4.97;;;;;7.20;102257.00;;;;4927657;28;20761;-68
2022/04/28 03:15:50;;;;;;;12.80;4.50;;;;;7.30;102238.00;;;;4931098;28;20775;-69
2022/04/28 03:18:37;;;;;;;8.40;4.57;;;;;7.50;102253.00;;;;4927279;28;20278;-69
2022/04/28 03:21:25;;;;;;;11.30;4.47;;;;;7.40;102265.00;;;;4925178;28;20336;-67
2022/04/28 03:24:11;;;;;;;9.47;4.37;;;;;7.40;102262.00;;;;4923999;28;20823;-69
2022/04/28 03:26:57;;;;;;;9.00;4.93;;;;;7.50;102255.00;;;;4931026;28;20320;-68
2022/04/28 03:29:44;;;;;;;9.57;5.27;;;;;7.40;102258.00;;;;4930864;28;20256;-69
2022/04/28 03:32:30;;;;;;;11.90;4.83;;;;;7.30;102256.00;;;;4930700;28;20244;-69
2022/04/28 03:35:16;;;;;;;10.80;5.17;;;;;7.40;102253.00;;;;4924704;28;20244;-69
2022/04/28 03:38:04;;;;;;;10.03;5.13;;;;;7.40;102251.00;;;;4930719;28;20245;-68
2022/04/28 03:40:51;;;;;;;9.43;5.37;;;;;7.40;102255.00;;;;4930493;28;20292;-69
2022/04/28 03:43:37;;;;;;;8.40;4.93;;;;;7.40;102253.00;;;;4931087;28;20237;-70
2022/04/28 03:46:24;;;;;;;10.50;4.20;;;;;7.30;102247.00;;;;4924994;28;20236;-69
2022/04/28 03:49:11;;;;;;;13.63;5.57;;;;;7.30;102243.00;;;;4923461;28;20240;-66
2022/04/28 03:51:57;;;;;;;10.60;4.83;;;;;7.30;102250.00;;;;4929974;28;20244;-68
2022/04/28 03:54:45;;;;;;;8.47;5.03;;;;;7.20;102253.00;;;;4930680;28;20264;-69
2022/04/28 03:57:31;;;;;;;12.17;5.20;;;;;7.20;102251.00;;;;4930457;28;20291;-67
2022/04/28 04:00:19;;;;;;;12.37;4.67;;;;;7.10;102255.00;;;;4924277;28;20240;-69
2022/04/28 04:03:05;;;;;;;9.17;4.73;;;;;7.00;102252.00;;;;4929393;28;20298;-67
2022/04/28 04:05:51;;;;;;;10.53;4.40;;;;;7.00;102254.00;;;;4930279;28;20240;-69
2022/04/28 04:08:38;;;;;;;12.40;4.90;;;;;7.00;102252.00;;;;4930655;28;20289;-69
2022/04/28 04:11:25;;;;;;;9.60;4.53;;;;;6.90;102250.00;;;;4924255;28;20381;-68
2022/04/28 04:14:12;;;;;;;13.10;5.40;;;;;6.80;102252.00;;;;4941688;28;20816;-69
2022/04/28 04:16:58;;;;;;;12.30;5.10;;;;;6.70;102259.00;;;;4949096;28;20626;-67
2022/04/28 04:19:45;;;;;;;8.57;4.57;;;;;6.70;102264.00;;;;4949424;28;20247;-68
2022/04/28 04:22:31;;;;;;;8.23;4.33;;;;;6.60;102266.00;;;;4928748;28;20284;-67
2022/04/28 04:25:18;;;;;;;9.30;4.90;;;;;6.50;102258.00;;;;4941229;28;20243;-67
2022/04/28 04:28:05;;;;;;;10.23;5.73;;;;;6.50;102259.00;;;;4948675;28;20739;-67
2022/04/28 04:33:55;;;;;;;16.93;5.23;;;;;6.60;102264.00;;;;4948700;28;20234;-64
2022/04/28 04:36:41;;;;;;;14.93;5.03;;;;;6.70;102274.00;;;;4948734;28;20264;-66
2022/04/28 04:39:27;;;;;;;10.37;4.73;;;;;6.70;102271.00;;;;4926460;28;20236;-66
2022/04/28 04:42:14;;;;;;;9.33;4.60;;;;;6.60;102281.00;;;;4922048;28;20268;-67
2022/04/28 04:45:02;;;;;;;13.60;5.47;;;;;6.70;102279.00;;;;4936746;28;20268;-68
2022/04/28 04:47:48;;;;;;;8.73;4.90;;;;;6.70;102287.00;;;;4929257;28;20236;-65
2022/04/28 04:50:34;;;;;;;10.37;4.83;;;;;6.70;102279.00;;;;4929341;28;20232;-67
2022/04/28 04:53:20;;;;;;;9.17;4.67;;;;;6.80;102290.00;;;;4923287;28;20239;-68
2022/04/28 04:56:06;;;;;;;10.03;5.37;;;;;7.00;102287.00;;;;4929523;28;20256;-68
2022/04/28 04:58:53;;;;;;;11.00;5.07;;;;;6.90;102294.00;;;;4929222;28;20316;-68
2022/04/28 05:01:41;;;;;;;10.10;5.43;;;;;7.00;102303.00;;;;4928721;28;20236;-67
2022/04/28 05:04:28;;;;;;;11.17;5.60;;;;;7.10;102307.00;;;;4923494;28;20240;-66
2022/04/28 05:07:14;;;;;;;11.67;6.23;;;;;7.30;102305.00;;;;4929335;28;20765;-67
2022/04/28 05:10:00;;;;;;;14.13;5.13;;;;;7.30;102300.00;;;;4928787;28;20794;-67
2022/04/28 05:12:47;;;;;;;13.80;5.83;;;;;7.40;102316.00;;;;4929095;28;20285;-68
2022/04/28 05:15:33;;;;;;;9.83;5.20;;;;;7.40;102310.00;;;;4925867;28;20288;-68
2022/04/28 05:18:20;;;;;;;11.97;5.27;;;;;7.50;102317.00;;;;4937695;28;20240;-68
2022/04/28 05:21:07;;;;;;;9.30;4.90;;;;;7.50;102306.00;;;;4947428;28;20235;-68
2022/04/28 05:23:53;;;;;;;15.37;5.30;;;;;7.50;102323.00;;;;4947704;28;20299;-67
2022/04/28 05:26:43;;;;;;;13.67;5.27;;;;;7.60;102317.00;;;;4948273;28;20243;-68
2022/04/28 05:29:29;;;;;;;15.17;4.80;;;;;7.60;102321.00;;;;4925224;28;20369;-68
2022/04/28 05:32:16;;;;;;;16.73;5.97;;;;;7.70;102328.00;;;;4921102;28;20229;-67
2022/04/28 05:35:04;;;;;;;11.67;5.40;;;;;7.70;102322.00;;;;4928764;28;20244;-67
2022/04/28 05:37:50;;;;;;;14.10;5.33;;;;;7.90;102332.00;;;;4928486;28;20311;-66
2022/04/28 05:40:39;;;;;;;13.27;5.73;;;;;7.80;102334.00;;;;4923318;28;20276;-68
2022/04/28 05:46:29;;;;;;;13.73;5.23;;;;;7.90;102336.00;;;;4924722;28;20605;-67
2022/04/28 05:49:15;;;;;;;12.63;5.33;;;;;8.00;102347.00;;;;4936513;28;20245;-67
2022/04/28 05:52:03;;;;;;;11.70;6.10;;;;;7.90;102343.00;;;;4927748;28;20263;-69
2022/04/28 05:54:49;;;;;;;10.33;5.37;;;;;8.00;102344.00;;;;4928621;28;20236;-69
2022/04/28 05:57:35;;;;;;;14.43;5.63;;;;;8.00;102352.00;;;;4923537;28;20248;-68
2022/04/28 06:00:22;;;;;;;11.47;5.60;;;;;8.00;102350.00;;;;4921309;28;20229;-67
2022/04/28 06:03:08;;;;;;;12.53;5.97;;;;;8.10;102337.00;;;;4927002;28;20272;-69
2022/04/28 06:05:54;;;;;;;11.43;5.60;;;;;8.00;102349.00;;;;4928279;28;20722;-68
2022/04/28 06:08:42;;;;;;;10.23;4.70;;;;;8.10;102346.00;;;;4928707;28;20240;-68
2022/04/28 06:11:29;;;;;;;13.60;6.20;;;;;8.10;102347.00;;;;4928044;28;20240;-70
2022/04/28 06:14:15;;;;;;;12.23;5.67;;;;;8.20;102349.00;;;;4928365;28;20370;-69
2022/04/28 06:17:01;;;;;;;13.53;5.67;;;;;8.30;102342.00;;;;4927584;28;20638;-69
2022/04/28 06:19:48;;;;;;;12.70;6.17;;;;;8.40;102347.00;;;;4928328;28;20767;-68
2022/04/28 06:22:54;;;;;;;11.53;5.60;;;;;8.50;102364.00;;;;4924372;28;20252;-70
2022/04/28 06:25:42;;;;;;;13.07;5.37;;;;;8.70;102364.00;;;;4928025;28;20228;-69
2022/04/28 06:28:28;;;;;;;10.27;5.37;;;;;8.50;102361.00;;;;4919533;28;20372;-69
2022/04/28 06:31:14;;;;;;;14.07;5.67;;;;;8.70;102364.00;;;;4927459;28;20240;-69
2022/04/28 06:34:00;;;;;;;14.67;5.60;;;;;8.80;102367.00;;;;4927439;28;20271;-69
2022/04/28 06:36:46;;;;;;;16.10;6.07;;;;;8.80;102367.00;;;;4927750;28;20304;-70
2022/04/28 06:39:32;;;;;;;16.57;5.83;;;;;8.80;102371.00;;;;4921723;28;20232;-69
2022/04/28 06:42:20;;;;;;;9.40;5.30;;;;;8.90;102375.00;;;;4927695;28;20308;-70
2022/04/28 06:45:07;;;;;;;12.77;5.53;;;;;9.00;102365.00;;;;4925870;28;20255;-69
2022/04/28 06:47:53;;;;;;;14.90;5.90;;;;;9.20;102383.00;;;;4927218;28;20260;-69
2022/04/28 06:50:39;;;;;;;9.17;4.40;;;;;9.20;102370.00;;;;4924575;28;20625;-69
2022/04/28 06:53:26;;;;;;;11.43;5.10;;;;;9.30;102382.00;;;;4920680;28;20236;-69
2022/04/28 06:56:12;;;;;;;12.13;4.67;;;;;9.40;102378.00;;;;4927447;28;20308;-69
2022/04/28 06:59:00;;;;;;;14.77;5.97;;;;;9.50;102383.00;;;;4927168;28;20245;-69
2022/04/28 07:01:46;;;;;;;15.20;5.47;;;;;9.40;102382.00;;;;4934337;28;20240;-70
2022/04/28 07:04:32;;;;;;;10.43;5.50;;;;;9.50;102382.00;;;;4926906;28;20229;-71
2022/04/28 07:07:19;;;;;;;15.83;5.83;;;;;9.70;102390.00;;;;4927659;28;20809;-67
2022/04/28 07:10:07;;;;;;;9.30;5.13;;;;;9.80;102397.00;;;;4927308;28;20238;-68
2022/04/28 07:12:53;;;;;;;12.57;4.97;;;;;9.80;102393.00;;;;4927323;28;20663;-70
2022/04/28 07:15:41;;;;;;;11.93;4.73;;;;;9.80;102401.00;;;;4922246;28;20603;-69
2022/04/28 07:18:27;;;;;;;10.27;5.13;;;;;9.70;102400.00;;;;4920507;28;20241;-71
2022/04/28 07:21:13;;;;;;;9.73;5.13;;;;;10.00;102405.00;;;;4927205;28;20264;-71
2022/04/28 07:23:59;;;;;;;10.57;4.53;;;;;10.10;102405.00;;;;4927338;28;20258;-68
2022/04/28 07:26:45;;;;;;;8.50;4.87;;;;;10.10;102405.00;;;;4927769;28;20256;-69
2022/04/28 07:29:32;;;;;;;14.40;5.50;;;;;10.30;102404.00;;;;4921077;28;20697;-70
2022/04/28 07:32:20;;;;;;;12.37;5.50;;;;;10.50;102401.00;;;;4927002;28;20245;-69
2022/04/28 07:35:07;;;;;;;11.97;5.80;;;;;10.50;102410.00;;;;4926965;28;20401;-67
2022/04/28 07:37:53;;;;;;;11.30;4.80;;;;;10.60;102418.00;;;;4927090;28;20718;-68
2022/04/28 07:40:44;;;;;;;8.37;4.23;;;;;10.80;102416.00;;;;4921951;28;20229;-68
2022/04/28 07:43:30;;;;;;;8.60;4.80;;;;;10.70;102419.00;;;;4920409;28;20718;-69
2022/04/28 07:46:17;;;;;;;8.00;4.20;;;;;11.00;102417.00;;;;4927213;28;20238;-69
2022/04/28 07:49:04;;;;;;;8.03;4.63;;;;;11.10;102419.00;;;;4927036;28;20227;-70
2022/04/28 07:51:50;;;;;;;10.87;4.67;;;;;11.20;102421.00;;;;4927155;28;20236;-69
2022/04/28 07:54:36;;;;;;;10.40;4.40;;;;;11.30;102417.00;;;;4920935;28;20287;-70
2022/04/28 07:57:24;;;;;;;16.13;4.77;;;;;11.30;102412.00;;;;4926923;28;20777;-69
2022/04/28 08:00:11;;;;;;;8.27;4.67;;;;;11.40;102417.00;;;;4929634;28;20236;-68
2022/04/28 08:02:58;;;;;;;10.17;4.33;;;;;11.40;102419.00;;;;4927231;28;21119;-68
2022/04/28 08:05:46;;;;;;;11.07;3.90;;;;;11.50;102434.00;;;;4925592;28;20708;-68
2022/04/28 08:08:33;;;;;;;9.77;4.23;;;;;11.80;102433.00;;;;4923925;28;20240;-68
2022/04/28 08:11:20;;;;;;;11.27;4.93;;;;;12.00;102423.00;;;;4930486;28;21851;-66
2022/04/28 08:14:06;;;;;;;9.23;4.93;;;;;11.90;102425.00;;;;4930295;28;20232;-68
2022/04/28 08:16:52;;;;;;;11.73;5.27;;;;;12.00;102435.00;;;;4930095;28;20240;-68
2022/04/28 08:19:39;;;;;;;10.10;4.67;;;;;12.30;102439.00;;;;4928091;28;20244;-68
2022/04/28 08:22:26;;;;;;;12.27;4.70;;;;;12.30;102437.00;;;;4929812;28;20753;-69
2022/04/28 08:25:13;;;;;;;10.43;4.53;;;;;12.20;102443.00;;;;4930469;28;21126;-68
2022/04/28 08:27:59;;;;;;;9.10;4.33;;;;;12.60;102456.00;;;;4930143;28;20238;-69
2022/04/28 08:30:45;;;;;;;11.10;4.90;;;;;12.50;102452.00;;;;4927038;28;20296;-69
2022/04/28 08:33:31;;;;;;;8.10;4.70;;;;;12.50;102443.00;;;;4923012;28;20302;-68
2022/04/28 08:36:18;;;;;;;12.53;4.37;;;;;12.80;102442.00;;;;4929809;28;20236;-67
2022/04/28 08:39:06;;;;;;;7.23;4.50;;;;;13.00;102446.00;;;;4929590;28;20247;-69
2022/04/28 08:41:53;;;;;;;9.07;4.67;;;;;13.20;102451.00;;;;4929386;28;20236;-66
2022/04/28 08:44:40;;;;;;;7.17;4.57;;;;;13.20;102446.00;;;;4923629;28;20307;-69
2022/04/28 08:47:26;;;;;;;8.53;4.83;;;;;13.30;102452.00;;;;4929623;28;20361;-69
2022/04/28 08:50:13;;;;;;;10.83;5.30;;;;;13.50;102442.00;;;;4929366;28;20307;-68
2022/04/28 08:53:00;;;;;;;16.57;5.20;;;;;13.60;102456.00;;;;4929109;28;20738;-67
2022/04/28 08:55:48;;;;;;;8.27;4.60;;;;;13.60;102445.00;;;;4926687;28;20236;-68
2022/04/28 08:58:35;;;;;;;9.30;5.10;;;;;14.00;102461.00;;;;4925079;28;20240;-68
2022/04/28 09:01:24;;;;;;;9.60;5.40;;;;;13.90;102463.00;;;;4932627;28;20829;-70
2022/04/28 09:04:11;;;;;;;8.17;4.87;;;;;13.90;102462.00;;;;4948334;28;20940;-68
2022/04/28 09:06:59;;;;;;;11.20;5.20;;;;;14.10;102453.00;;;;4934035;28;20336;-68
2022/04/28 09:09:46;;;;;;;9.83;4.97;;;;;14.30;102453.00;;;;4923725;28;20240;-67
2022/04/28 09:12:34;;;;;;;9.47;5.07;;;;;14.60;102458.00;;;;4928474;28;20236;-68
2022/04/28 09:15:22;;;;;;;14.10;5.77;;;;;14.40;102454.00;;;;4918689;29;20711;-68
2022/04/28 09:18:09;;;;;;;10.07;4.57;;;;;14.60;102463.00;;;;4928799;28;20244;-68
2022/04/28 09:20:56;;;;;;;18.00;6.13;;;;;14.70;102448.00;;;;4929047;28;20612;-68
2022/04/28 09:23:42;;;;;;;10.70;5.57;;;;;14.60;102444.00;;;;4925430;28;20284;-68
2022/04/28 09:26:28;;;;;;;12.27;5.70;;;;;14.80;102449.00;;;;4928728;28;20365;-69
2022/04/28 09:29:23;;;;;;;13.60;6.13;;;;;15.00;102445.00;;;;4909992;29;20246;-68
2022/04/28 09:32:12;;;;;;;9.93;5.40;;;;;14.80;102440.00;;;;4909333;29;20260;-68
2022/04/28 09:35:18;;;;;;;11.20;4.90;;;;;15.30;102435.00;;;;4909521;29;20252;-69
2022/04/28 09:38:05;;;;;;;9.07;4.90;;;;;15.50;102439.00;;;;4906452;29;20812;-68
2022/04/28 09:44:16;;;;;;;10.90;5.30;;;;;15.80;102442.00;;;;4909597;29;20234;-68
2022/04/28 09:47:04;;;;;;;10.67;5.93;;;;;15.40;102439.00;;;;4909468;29;20250;-70
2022/04/28 09:49:53;;;;;;;11.90;5.80;;;;;15.30;102439.00;;;;4904486;29;20297;-68
2022/04/28 09:52:42;;;;;;;9.43;5.33;;;;;15.50;102442.00;;;;4909302;29;20235;-68
2022/04/28 09:55:29;;;;;;;11.07;5.30;;;;;15.50;102437.00;;;;4909221;29;20254;-68
2022/04/28 09:58:16;;;;;;;9.83;5.50;;;;;15.60;102438.00;;;;4909439;29;20243;-68
2022/04/28 10:01:03;;;;;;;8.67;5.10;;;;;15.70;102436.00;;;;4910187;29;20362;-68
2022/04/28 10:03:51;;;;;;;10.87;6.03;;;;;15.70;102440.00;;;;4922966;28;20242;-68
2022/04/28 10:06:38;;;;;;;10.17;5.47;;;;;15.80;102440.00;;;;4921143;28;20237;-66
2022/04/28 10:09:25;;;;;;;11.50;5.83;;;;;15.90;102434.00;;;;4927732;28;20242;-70
2022/04/28 10:12:12;;;;;;;11.00;5.33;;;;;16.20;102427.00;;;;4927448;28;20237;-69
2022/04/28 10:15:01;;;;;;;11.73;6.37;;;;;15.90;102428.00;;;;4928306;28;20365;-68
2022/04/28 10:17:50;;;;;;;9.97;5.70;;;;;16.00;102438.00;;;;4903269;29;20256;-70
2022/04/28 10:20:40;;;;;;;11.77;5.57;;;;;16.00;102426.00;;;;4901679;29;20289;-68
2022/04/28 10:33:26;;;;;;;9.77;5.40;;;;;16.20;102425.00;;;;4907398;29;20335;-69
2022/04/28 10:36:17;;;;;;;12.17;5.77;;;;;16.60;102436.00;;;;4908642;29;20728;-68
2022/04/28 10:39:07;;;;;;;8.67;5.13;;;;;16.60;102432.00;;;;4909094;29;20249;-68
2022/04/28 10:41:53;;;;;;;10.37;5.73;;;;;16.70;102439.00;;;;4905503;29;20279;-68
2022/04/28 10:44:42;;;;;;;8.13;4.93;;;;;16.80;102431.00;;;;4909011;29;20229;-68
2022/04/28 10:47:35;;;;;;;11.40;5.53;;;;;17.00;102435.00;;;;4907805;29;20291;-68
2022/04/28 10:50:23;;;;;;;9.87;5.03;;;;;16.80;102429.00;;;;4906159;29;20754;-67
2022/04/28 10:53:11;;;;;;;12.83;5.70;;;;;16.90;102431.00;;;;4908519;29;20378;-70
2022/04/28 10:56:06;;;;;;;10.30;5.30;;;;;17.00;102432.00;;;;4905932;29;20237;-69
2022/04/28 10:58:56;;;;;;;10.30;5.60;;;;;17.00;102435.00;;;;4905125;29;20306;-70
2022/04/28 11:01:42;;;;;;;11.13;5.80;;;;;16.80;102437.00;;;;4907839;28;20293;-68
2022/04/28 11:04:29;;;;;;;11.53;5.53;;;;;17.20;102432.00;;;;4927290;28;20240;-68
2022/04/28 11:07:17;;;;;;;10.00;4.80;;;;;17.40;102442.00;;;;4927549;28;20229;-67
2022/04/28 11:10:07;;;;;;;11.13;4.80;;;;;17.50;102439.00;;;;4927738;28;20256;-68
2022/04/28 11:12:54;;;;;;;9.10;5.47;;;;;17.30;102430.00;;;;4921813;28;20994;-68
2022/04/28 11:15:40;;;;;;;9.13;5.07;;;;;17.50;102435.00;;;;4918862;28;20248;-68
2022/04/28 11:18:27;;;;;;;7.63;4.63;;;;;17.90;102434.00;;;;4927019;28;20710;-68
2022/04/28 11:21:14;;;;;;;9.83;5.63;;;;;17.70;102434.00;;;;4926840;28;20825;-67
2022/04/28 11:24:01;;;;;;;11.53;5.13;;;;;17.70;102423.00;;;;4927378;28;20240;-68
2022/04/28 11:26:49;;;;;;;10.27;4.93;;;;;17.80;102434.00;;;;4906122;29;20710;-68
2022/04/28 11:29:39;;;;;;;9.63;4.97;;;;;17.60;102426.00;;;;4908213;29;20229;-65
2022/04/28 11:32:26;;;;;;;8.57;5.00;;;;;18.00;102412.00;;;;4907698;29;20248;-68
2022/04/28 11:35:13;;;;;;;9.00;4.70;;;;;18.20;102428.00;;;;4910591;29;20282;-69
2022/04/28 11:37:59;;;;;;;9.30;4.93;;;;;18.10;102421.00;;;;4911864;29;20245;-68
2022/04/28 11:40:58;;;;;;;11.87;6.97;;;;;18.10;102425.00;;;;4904669;29;20313;-68
2022/04/28 11:43:47;;;;;;;9.67;5.57;;;;;17.90;102419.00;;;;4905034;29;20313;-68
2022/04/28 11:46:34;;;;;;;11.50;4.80;;;;;18.10;102416.00;;;;4911826;29;20246;-67
2022/04/28 11:49:21;;;;;;;11.23;5.03;;;;;18.70;102413.00;;;;4911704;29;20233;-69
2022/04/28 11:52:21;;;;;;;10.83;5.13;;;;;18.80;102414.00;;;;4911297;29;20244;-68
2022/04/28 11:55:09;;;;;;;8.80;4.77;;;;;18.80;102415.00;;;;4911684;29;20245;-69
2022/04/28 11:57:56;;;;;;;10.23;5.60;;;;;18.80;102422.00;;;;4906052;29;20253;-69
2022/04/28 12:00:45;;;;;;;13.13;5.20;;;;;18.70;102420.00;;;;4903928;29;20245;-66
2022/04/28 12:03:32;;;;;;;12.57;5.50;;;;;18.80;102412.00;;;;4930362;28;20260;-68
2022/04/28 12:06:19;;;;;;;9.83;5.30;;;;;18.90;102412.00;;;;4930371;28;20357;-68
2022/04/28 12:15:10;;;;;;;9.27;5.67;;;;;19.20;102421.00;;;;4926197;28;20245;-68
2022/04/28 12:21:14;;;;;;;8.33;4.90;;;;;19.30;102421.00;;;;4925154;28;20253;-67
2022/04/28 12:24:01;;;;;;;10.63;4.63;;;;;19.50;102418.00;;;;4930004;28;20374;-66
2022/04/28 12:26:49;;;;;;;14.67;4.93;;;;;19.30;102424.00;;;;4908239;28;20238;-68
2022/04/28 12:29:48;;;;;;;7.60;4.83;;;;;19.20;102421.00;;;;4929155;28;20628;-68
2022/04/28 12:32:43;;;;;;;9.37;5.00;;;;;18.90;102429.00;;;;4929336;28;20232;-68
2022/04/28 12:35:35;;;;;;;7.20;4.63;;;;;19.10;102426.00;;;;4929613;28;20232;-68
2022/04/28 12:38:26;;;;;;;10.50;5.07;;;;;19.60;102424.00;;;;4927402;28;20713;-69
2022/04/28 12:41:14;;;;;;;10.27;4.37;;;;;19.70;102416.00;;;;4910440;29;20785;-67
2022/04/28 12:44:06;;;;;;;15.23;4.63;;;;;19.70;102414.00;;;;4910659;29;20608;-67
2022/04/28 12:46:55;;;;;;;12.40;4.97;;;;;19.20;102409.00;;;;4909555;29;20230;-68
2022/04/28 12:49:46;;;;;;;10.63;4.47;;;;;19.70;102415.00;;;;4903083;29;20248;-67
2022/04/28 12:52:34;;;;;;;11.27;4.87;;;;;20.20;102413.00;;;;4910280;29;20241;-68
2022/04/28 12:55:21;;;;;;;9.43;4.97;;;;;20.20;102408.00;;;;4910883;29;20325;-67
2022/04/28 12:58:09;;;;;;;9.80;4.80;;;;;20.10;102408.00;;;;4910905;29;20238;-66
2022/04/28 13:00:55;;;;;;;9.37;5.10;;;;;20.20;102406.00;;;;4904414;29;20767;-66
2022/04/28 13:03:55;;;;;;;8.93;5.03;;;;;20.10;102409.00;;;;4907359;29;20298;-68
2022/04/28 13:06:44;;;;;;;8.63;4.67;;;;;20.10;102411.00;;;;4910209;29;20275;-68
2022/04/28 13:09:31;;;;;;;8.53;4.90;;;;;20.50;102404.00;;;;4910186;29;20236;-68
2022/04/28 13:12:17;;;;;;;9.87;5.47;;;;;20.50;102407.00;;;;4910216;29;20737;-67
2022/04/28 13:15:05;;;;;;;14.13;5.43;;;;;20.40;102408.00;;;;4907230;29;20304;-67
2022/04/28 13:17:51;;;;;;;6.17;4.63;;;;;20.60;102402.00;;;;4903275;29;20244;-68
2022/04/28 13:20:37;;;;;;;7.83;4.17;;;;;20.90;102403.00;;;;4909555;29;20755;-68
2022/04/28 13:23:23;;;;;;;9.77;4.60;;;;;21.10;102405.00;;;;4910034;29;20371;-68
2022/04/28 13:26:15;;;;;;;7.77;4.67;;;;;21.00;102403.00;;;;4910359;29;20776;-67
2022/04/28 13:29:02;;;;;;;8.63;5.07;;;;;21.00;102398.00;;;;4904293;29;20240;-68
2022/04/28 13:31:48;;;;;;;8.70;4.77;;;;;21.00;102395.00;;;;4902456;29;20302;-69
2022/04/28 13:34:34;;;;;;;8.33;4.20;;;;;20.80;102389.00;;;;4909356;29;20650;-69
2022/04/28 13:37:21;;;;;;;10.33;5.03;;;;;21.30;102383.00;;;;4909877;29;20285;-67
2022/04/28 13:40:09;;;;;;;8.60;4.57;;;;;21.70;102370.00;;;;4909852;29;20248;-68
2022/04/28 13:42:57;;;;;;;10.00;4.40;;;;;21.70;102383.00;;;;4909480;29;20667;-67
2022/04/28 13:45:43;;;;;;;8.97;4.60;;;;;21.50;102386.00;;;;4909541;29;20240;-70
2022/04/28 13:48:30;;;;;;;8.73;4.50;;;;;21.60;102384.00;;;;4907265;29;20244;-69
2022/04/28 13:51:16;;;;;;;10.47;4.87;;;;;21.40;102381.00;;;;4905435;29;20295;-68
2022/04/28 13:54:02;;;;;;;6.90;4.10;;;;;21.40;102374.00;;;;4903863;29;20320;-68
2022/04/28 13:56:48;;;;;;;5.67;4.00;;;;;21.50;102363.00;;;;4902021;29;20243;-68
2022/04/28 13:59:36;;;;;;;7.57;4.43;;;;;21.60;102369.00;;;;4907669;29;20244;-68
2022/04/28 14:02:22;;;;;;;11.73;4.83;;;;;21.60;102360.00;;;;4920177;28;20248;-69
2022/04/28 14:05:11;;;;;;;9.00;4.53;;;;;22.00;102365.00;;;;4928498;28;20248;-68
2022/04/28 14:07:57;;;;;;;8.37;4.57;;;;;21.90;102361.00;;;;4905412;28;20248;-69
2022/04/28 14:10:44;;;;;;;9.80;4.83;;;;;22.40;102352.00;;;;4908836;29;20271;-68
2022/04/28 14:13:31;;;;;;;8.43;4.60;;;;;22.60;102351.00;;;;4909039;28;20718;-70
2022/04/28 14:16:18;;;;;;;8.20;4.80;;;;;22.50;102351.00;;;;4909531;29;20734;-68
2022/04/28 14:19:05;;;;;;;10.27;5.40;;;;;22.00;102352.00;;;;4922571;28;20236;-68
2022/04/28 14:21:51;;;;;;;10.07;5.07;;;;;22.80;102351.00;;;;4894352;29;20248;-67
2022/04/28 14:24:37;;;;;;;8.00;4.83;;;;;22.60;102353.00;;;;4914906;28;20236;-68
2022/04/28 14:27:25;;;;;;;8.40;4.90;;;;;23.30;102346.00;;;;4927767;28;20384;-67
2022/04/28 14:30:12;;;;;;;6.87;4.70;;;;;23.30;102349.00;;;;4927943;28;20288;-68
2022/04/28 14:33:00;;;;;;;6.90;4.90;;;;;23.30;102345.00;;;;4927759;28;20311;-68